sensor_id;sensor_type;location;lat;lon;timestamp;P1;durP1;ratioP1;P2;durP2;ratioP2
75386;SDS011;63966;47.914;22.266;2023-06-05T00:01:22;8.57;;;3.63;;
75386;SDS011;63966;47.914;22.266;2023-06-05T00:04:26;10.43;;;3.53;;
75386;SDS011;63966;47.914;22.266;2023-06-05T00:07:32;10.77;;;3.80;;
75386;SDS011;63966;47.914;22.266;2023-06-05T00:10:35;8.10;;;3.35;;
75386;SDS011;63966;47.914;22.266;2023-06-05T00:13:39;14.80;;;4.65;;
75386;SDS011;63966;47.914;22.266;2023-06-05T00:16:42;11.02;;;5.03;;
75386;SDS011;63966;47.914;22.266;2023-06-05T00:19:46;9.60;;;4.32;;
75386;SDS011;63966;47.914;22.266;2023-06-05T00:22:49;11.67;;;4.60;;
75386;SDS011;63966;47.914;22.266;2023-06-05T00:25:52;12.65;;;4.75;;
75386;SDS011;63966;47.914;22.266;2023-06-05T00:28:56;13.25;;;5.10;;
75386;SDS011;63966;47.914;22.266;2023-06-05T00:31:59;11.65;;;5.05;;
75386;SDS011;63966;47.914;22.266;2023-06-05T00:35:03;10.45;;;4.95;;
75386;SDS011;63966;47.914;22.266;2023-06-05T00:38:06;10.90;;;4.50;;
75386;SDS011;63966;47.914;22.266;2023-06-05T00:41:10;8.75;;;4.20;;
75386;SDS011;63966;47.914;22.266;2023-06-05T00:44:13;11.75;;;4.78;;
75386;SDS011;63966;47.914;22.266;2023-06-05T00:47:18;9.20;;;4.43;;
75386;SDS011;63966;47.914;22.266;2023-06-05T00:50:22;10.05;;;4.50;;
75386;SDS011;63966;47.914;22.266;2023-06-05T00:53:27;12.87;;;4.90;;
75386;SDS011;63966;47.914;22.266;2023-06-05T00:56:32;10.43;;;5.10;;
75386;SDS011;63966;47.914;22.266;2023-06-05T00:59:38;9.10;;;4.53;;
75386;SDS011;63966;47.914;22.266;2023-06-05T01:02:42;9.43;;;3.90;;
75386;SDS011;63966;47.914;22.266;2023-06-05T01:05:46;11.32;;;3.88;;
75386;SDS011;63966;47.914;22.266;2023-06-05T01:08:50;9.67;;;4.13;;
75386;SDS011;63966;47.914;22.266;2023-06-05T01:12:03;8.77;;;3.92;;
75386;SDS011;63966;47.914;22.266;2023-06-05T01:15:23;8.65;;;4.22;;
75386;SDS011;63966;47.914;22.266;2023-06-05T01:18:36;9.85;;;4.35;;
75386;SDS011;63966;47.914;22.266;2023-06-05T01:21:42;9.30;;;3.95;;
75386;SDS011;63966;47.914;22.266;2023-06-05T01:24:46;8.60;;;3.83;;
75386;SDS011;63966;47.914;22.266;2023-06-05T01:28:10;8.32;;;4.10;;
75386;SDS011;63966;47.914;22.266;2023-06-05T01:31:20;11.55;;;3.95;;
75386;SDS011;63966;47.914;22.266;2023-06-05T01:34:25;8.88;;;3.45;;
75386;SDS011;63966;47.914;22.266;2023-06-05T01:37:29;8.13;;;3.50;;
75386;SDS011;63966;47.914;22.266;2023-06-05T01:40:38;7.77;;;3.40;;
75386;SDS011;63966;47.914;22.266;2023-06-05T01:43:44;7.30;;;3.20;;
75386;SDS011;63966;47.914;22.266;2023-06-05T01:46:50;8.48;;;3.50;;
75386;SDS011;63966;47.914;22.266;2023-06-05T01:49:53;6.55;;;3.13;;
75386;SDS011;63966;47.914;22.266;2023-06-05T01:52:58;9.07;;;3.58;;
75386;SDS011;63966;47.914;22.266;2023-06-05T01:56:03;9.70;;;3.53;;
75386;SDS011;63966;47.914;22.266;2023-06-05T01:59:09;10.10;;;3.70;;
75386;SDS011;63966;47.914;22.266;2023-06-05T02:02:12;9.60;;;3.50;;
75386;SDS011;63966;47.914;22.266;2023-06-05T02:05:17;6.88;;;3.33;;
75386;SDS011;63966;47.914;22.266;2023-06-05T02:08:23;8.35;;;3.70;;
75386;SDS011;63966;47.914;22.266;2023-06-05T02:11:27;6.73;;;3.20;;
75386;SDS011;63966;47.914;22.266;2023-06-05T02:14:31;7.22;;;3.08;;
75386;SDS011;63966;47.914;22.266;2023-06-05T02:17:38;9.05;;;3.75;;
75386;SDS011;63966;47.914;22.266;2023-06-05T02:20:42;7.35;;;3.30;;
75386;SDS011;63966;47.914;22.266;2023-06-05T02:23:46;9.27;;;3.83;;
75386;SDS011;63966;47.914;22.266;2023-06-05T02:26:49;10.93;;;3.70;;
75386;SDS011;63966;47.914;22.266;2023-06-05T02:29:52;7.32;;;3.20;;
75386;SDS011;63966;47.914;22.266;2023-06-05T02:32:56;9.68;;;3.33;;
75386;SDS011;63966;47.914;22.266;2023-06-05T02:36:03;7.35;;;3.22;;
75386;SDS011;63966;47.914;22.266;2023-06-05T02:39:07;7.50;;;3.40;;
75386;SDS011;63966;47.914;22.266;2023-06-05T02:42:11;6.57;;;3.20;;
75386;SDS011;63966;47.914;22.266;2023-06-05T02:45:14;9.98;;;3.83;;
75386;SDS011;63966;47.914;22.266;2023-06-05T02:48:18;7.45;;;3.60;;
75386;SDS011;63966;47.914;22.266;2023-06-05T02:51:21;9.07;;;3.50;;
75386;SDS011;63966;47.914;22.266;2023-06-05T02:54:25;10.35;;;3.55;;
75386;SDS011;63966;47.914;22.266;2023-06-05T02:57:33;8.87;;;3.50;;
75386;SDS011;63966;47.914;22.266;2023-06-05T03:00:48;8.70;;;3.17;;
75386;SDS011;63966;47.914;22.266;2023-06-05T03:03:54;7.80;;;3.10;;
75386;SDS011;63966;47.914;22.266;2023-06-05T03:07:00;9.20;;;3.80;;
75386;SDS011;63966;47.914;22.266;2023-06-05T03:10:07;7.93;;;3.45;;
75386;SDS011;63966;47.914;22.266;2023-06-05T03:13:11;8.20;;;2.93;;
75386;SDS011;63966;47.914;22.266;2023-06-05T03:16:14;8.60;;;3.42;;
75386;SDS011;63966;47.914;22.266;2023-06-05T03:19:24;9.18;;;3.65;;
75386;SDS011;63966;47.914;22.266;2023-06-05T03:22:30;8.65;;;3.42;;
75386;SDS011;63966;47.914;22.266;2023-06-05T03:25:34;8.13;;;3.22;;
75386;SDS011;63966;47.914;22.266;2023-06-05T03:28:37;11.83;;;3.50;;
75386;SDS011;63966;47.914;22.266;2023-06-05T03:31:44;8.63;;;3.55;;
75386;SDS011;63966;47.914;22.266;2023-06-05T03:34:47;8.18;;;3.45;;
75386;SDS011;63966;47.914;22.266;2023-06-05T03:37:52;10.00;;;3.63;;
75386;SDS011;63966;47.914;22.266;2023-06-05T03:40:56;8.48;;;3.45;;
75386;SDS011;63966;47.914;22.266;2023-06-05T03:43:59;9.40;;;3.40;;
75386;SDS011;63966;47.914;22.266;2023-06-05T03:47:03;8.45;;;3.35;;
75386;SDS011;63966;47.914;22.266;2023-06-05T03:50:08;10.90;;;3.55;;
75386;SDS011;63966;47.914;22.266;2023-06-05T03:53:17;7.97;;;3.30;;
75386;SDS011;63966;47.914;22.266;2023-06-05T03:56:21;7.85;;;3.47;;
75386;SDS011;63966;47.914;22.266;2023-06-05T03:59:26;7.70;;;3.37;;
75386;SDS011;63966;47.914;22.266;2023-06-05T04:02:35;8.23;;;3.60;;
75386;SDS011;63966;47.914;22.266;2023-06-05T04:05:40;7.93;;;3.97;;
75386;SDS011;63966;47.914;22.266;2023-06-05T04:08:45;8.50;;;4.28;;
75386;SDS011;63966;47.914;22.266;2023-06-05T04:11:48;15.10;;;5.80;;
75386;SDS011;63966;47.914;22.266;2023-06-05T04:14:52;11.17;;;5.30;;
75386;SDS011;63966;47.914;22.266;2023-06-05T04:17:56;10.40;;;4.50;;
75386;SDS011;63966;47.914;22.266;2023-06-05T04:20:59;10.80;;;4.55;;
75386;SDS011;63966;47.914;22.266;2023-06-05T04:24:07;8.68;;;4.75;;
75386;SDS011;63966;47.914;22.266;2023-06-05T04:27:12;9.43;;;4.78;;
75386;SDS011;63966;47.914;22.266;2023-06-05T04:30:16;10.57;;;5.30;;
75386;SDS011;63966;47.914;22.266;2023-06-05T04:33:20;10.23;;;5.63;;
75386;SDS011;63966;47.914;22.266;2023-06-05T04:36:26;10.07;;;5.32;;
75386;SDS011;63966;47.914;22.266;2023-06-05T04:39:30;9.15;;;4.40;;
75386;SDS011;63966;47.914;22.266;2023-06-05T04:42:34;9.20;;;4.10;;
75386;SDS011;63966;47.914;22.266;2023-06-05T04:45:39;9.80;;;4.17;;
75386;SDS011;63966;47.914;22.266;2023-06-05T04:48:45;11.10;;;4.55;;
75386;SDS011;63966;47.914;22.266;2023-06-05T04:51:49;12.10;;;4.60;;
75386;SDS011;63966;47.914;22.266;2023-06-05T04:54:56;15.23;;;4.55;;
75386;SDS011;63966;47.914;22.266;2023-06-05T04:57:59;14.98;;;4.68;;
75386;SDS011;63966;47.914;22.266;2023-06-05T05:01:06;14.87;;;4.50;;
75386;SDS011;63966;47.914;22.266;2023-06-05T05:04:13;12.27;;;4.57;;
75386;SDS011;63966;47.914;22.266;2023-06-05T05:07:17;19.20;;;4.78;;
75386;SDS011;63966;47.914;22.266;2023-06-05T05:10:21;20.23;;;4.30;;
75386;SDS011;63966;47.914;22.266;2023-06-05T05:13:25;25.38;;;5.00;;
75386;SDS011;63966;47.914;22.266;2023-06-05T05:16:28;15.97;;;4.30;;
75386;SDS011;63966;47.914;22.266;2023-06-05T05:19:32;20.67;;;4.70;;
75386;SDS011;63966;47.914;22.266;2023-06-05T05:22:37;16.05;;;3.92;;
75386;SDS011;63966;47.914;22.266;2023-06-05T05:25:40;19.45;;;4.00;;
75386;SDS011;63966;47.914;22.266;2023-06-05T05:28:44;16.50;;;4.65;;
75386;SDS011;63966;47.914;22.266;2023-06-05T05:31:47;16.63;;;4.27;;
75386;SDS011;63966;47.914;22.266;2023-06-05T05:34:51;16.60;;;4.35;;
75386;SDS011;63966;47.914;22.266;2023-06-05T05:37:55;6.65;;;3.25;;
75386;SDS011;63966;47.914;22.266;2023-06-05T05:40:59;7.85;;;3.50;;
75386;SDS011;63966;47.914;22.266;2023-06-05T05:44:04;9.43;;;3.58;;
75386;SDS011;63966;47.914;22.266;2023-06-05T05:47:08;7.67;;;3.17;;
75386;SDS011;63966;47.914;22.266;2023-06-05T05:50:12;10.45;;;3.70;;
75386;SDS011;63966;47.914;22.266;2023-06-05T05:53:16;10.05;;;3.95;;
75386;SDS011;63966;47.914;22.266;2023-06-05T05:56:19;7.13;;;3.58;;
75386;SDS011;63966;47.914;22.266;2023-06-05T05:59:23;12.85;;;4.10;;
75386;SDS011;63966;47.914;22.266;2023-06-05T06:02:27;9.23;;;3.70;;
75386;SDS011;63966;47.914;22.266;2023-06-05T06:05:31;6.43;;;3.30;;
75386;SDS011;63966;47.914;22.266;2023-06-05T06:08:34;8.77;;;3.65;;
75386;SDS011;63966;47.914;22.266;2023-06-05T06:11:38;10.65;;;4.07;;
75386;SDS011;63966;47.914;22.266;2023-06-05T06:14:41;7.82;;;3.50;;
75386;SDS011;63966;47.914;22.266;2023-06-05T06:17:45;10.57;;;3.10;;
75386;SDS011;63966;47.914;22.266;2023-06-05T06:20:48;10.45;;;3.50;;
75386;SDS011;63966;47.914;22.266;2023-06-05T06:23:51;6.65;;;3.53;;
75386;SDS011;63966;47.914;22.266;2023-06-05T06:26:57;9.73;;;3.50;;
75386;SDS011;63966;47.914;22.266;2023-06-05T06:30:00;9.43;;;3.72;;
75386;SDS011;63966;47.914;22.266;2023-06-05T06:33:05;6.47;;;3.20;;
75386;SDS011;63966;47.914;22.266;2023-06-05T06:36:09;8.23;;;3.05;;
75386;SDS011;63966;47.914;22.266;2023-06-05T06:39:12;8.43;;;3.80;;
75386;SDS011;63966;47.914;22.266;2023-06-05T06:42:16;10.25;;;3.38;;
75386;SDS011;63966;47.914;22.266;2023-06-05T06:45:32;7.15;;;3.55;;
75386;SDS011;63966;47.914;22.266;2023-06-05T06:48:37;7.87;;;3.13;;
75386;SDS011;63966;47.914;22.266;2023-06-05T06:51:41;7.65;;;3.75;;
75386;SDS011;63966;47.914;22.266;2023-06-05T06:54:46;8.85;;;3.65;;
75386;SDS011;63966;47.914;22.266;2023-06-05T06:57:49;7.28;;;3.55;;
75386;SDS011;63966;47.914;22.266;2023-06-05T07:00:53;8.00;;;3.42;;
75386;SDS011;63966;47.914;22.266;2023-06-05T07:03:58;8.83;;;3.40;;
75386;SDS011;63966;47.914;22.266;2023-06-05T07:07:01;14.05;;;3.88;;
75386;SDS011;63966;47.914;22.266;2023-06-05T07:10:06;8.70;;;4.22;;
75386;SDS011;63966;47.914;22.266;2023-06-05T07:13:11;7.97;;;3.38;;
75386;SDS011;63966;47.914;22.266;2023-06-05T07:16:16;8.70;;;3.78;;
75386;SDS011;63966;47.914;22.266;2023-06-05T07:19:20;9.27;;;3.70;;
75386;SDS011;63966;47.914;22.266;2023-06-05T07:22:25;12.55;;;4.15;;
75386;SDS011;63966;47.914;22.266;2023-06-05T07:25:32;8.90;;;3.90;;
75386;SDS011;63966;47.914;22.266;2023-06-05T07:28:37;7.10;;;3.58;;
75386;SDS011;63966;47.914;22.266;2023-06-05T07:31:44;6.80;;;4.05;;
75386;SDS011;63966;47.914;22.266;2023-06-05T07:34:49;9.57;;;3.67;;
75386;SDS011;63966;47.914;22.266;2023-06-05T07:37:53;7.70;;;3.60;;
75386;SDS011;63966;47.914;22.266;2023-06-05T07:40:56;7.22;;;4.43;;
75386;SDS011;63966;47.914;22.266;2023-06-05T07:44:00;9.18;;;3.63;;
75386;SDS011;63966;47.914;22.266;2023-06-05T07:47:04;8.95;;;3.30;;
75386;SDS011;63966;47.914;22.266;2023-06-05T07:50:09;11.90;;;3.70;;
75386;SDS011;63966;47.914;22.266;2023-06-05T07:53:12;10.70;;;3.28;;
75386;SDS011;63966;47.914;22.266;2023-06-05T07:56:17;10.10;;;4.15;;
75386;SDS011;63966;47.914;22.266;2023-06-05T07:59:22;9.73;;;4.15;;
75386;SDS011;63966;47.914;22.266;2023-06-05T08:02:30;7.78;;;4.07;;
75386;SDS011;63966;47.914;22.266;2023-06-05T08:05:33;7.73;;;3.67;;
75386;SDS011;63966;47.914;22.266;2023-06-05T08:08:38;9.82;;;3.88;;
75386;SDS011;63966;47.914;22.266;2023-06-05T08:11:42;6.95;;;3.70;;
75386;SDS011;63966;47.914;22.266;2023-06-05T08:14:45;6.68;;;3.50;;
75386;SDS011;63966;47.914;22.266;2023-06-05T08:17:49;11.10;;;3.75;;
75386;SDS011;63966;47.914;22.266;2023-06-05T08:20:52;6.60;;;4.07;;
75386;SDS011;63966;47.914;22.266;2023-06-05T08:23:56;6.28;;;3.70;;
75386;SDS011;63966;47.914;22.266;2023-06-05T08:26:59;6.05;;;4.03;;
75386;SDS011;63966;47.914;22.266;2023-06-05T08:30:03;7.43;;;3.78;;
75386;SDS011;63966;47.914;22.266;2023-06-05T08:33:07;5.88;;;3.70;;
75386;SDS011;63966;47.914;22.266;2023-06-05T08:36:10;5.90;;;3.17;;
75386;SDS011;63966;47.914;22.266;2023-06-05T08:39:14;5.75;;;3.40;;
75386;SDS011;63966;47.914;22.266;2023-06-05T08:42:17;8.35;;;3.92;;
75386;SDS011;63966;47.914;22.266;2023-06-05T08:45:22;8.00;;;3.67;;
75386;SDS011;63966;47.914;22.266;2023-06-05T08:48:26;8.45;;;3.78;;
75386;SDS011;63966;47.914;22.266;2023-06-05T08:51:33;9.47;;;3.60;;
75386;SDS011;63966;47.914;22.266;2023-06-05T08:54:37;12.82;;;3.30;;
75386;SDS011;63966;47.914;22.266;2023-06-05T08:57:41;10.98;;;3.42;;
75386;SDS011;63966;47.914;22.266;2023-06-05T09:00:46;12.93;;;3.30;;
75386;SDS011;63966;47.914;22.266;2023-06-05T09:03:56;7.10;;;3.30;;
75386;SDS011;63966;47.914;22.266;2023-06-05T09:07:00;7.57;;;2.90;;
75386;SDS011;63966;47.914;22.266;2023-06-05T09:10:04;7.20;;;3.20;;
75386;SDS011;63966;47.914;22.266;2023-06-05T09:13:09;5.50;;;3.08;;
75386;SDS011;63966;47.914;22.266;2023-06-05T09:16:12;7.00;;;3.20;;
75386;SDS011;63966;47.914;22.266;2023-06-05T09:19:17;11.05;;;3.50;;
75386;SDS011;63966;47.914;22.266;2023-06-05T09:22:33;11.10;;;3.10;;
75386;SDS011;63966;47.914;22.266;2023-06-05T09:25:46;11.07;;;3.40;;
75386;SDS011;63966;47.914;22.266;2023-06-05T09:28:53;10.30;;;3.22;;
75386;SDS011;63966;47.914;22.266;2023-06-05T09:31:58;22.92;;;3.90;;
75386;SDS011;63966;47.914;22.266;2023-06-05T09:35:02;9.35;;;3.42;;
75386;SDS011;63966;47.914;22.266;2023-06-05T09:38:24;6.93;;;2.90;;
75386;SDS011;63966;47.914;22.266;2023-06-05T09:41:29;8.73;;;3.20;;
75386;SDS011;63966;47.914;22.266;2023-06-05T09:44:57;7.90;;;3.67;;
75386;SDS011;63966;47.914;22.266;2023-06-05T09:48:12;6.53;;;3.00;;
75386;SDS011;63966;47.914;22.266;2023-06-05T09:51:17;6.10;;;3.30;;
75386;SDS011;63966;47.914;22.266;2023-06-05T09:54:21;6.60;;;3.07;;
75386;SDS011;63966;47.914;22.266;2023-06-05T09:57:27;9.38;;;3.47;;
75386;SDS011;63966;47.914;22.266;2023-06-05T10:00:33;5.70;;;2.90;;
75386;SDS011;63966;47.914;22.266;2023-06-05T10:03:40;6.20;;;3.08;;
75386;SDS011;63966;47.914;22.266;2023-06-05T10:06:50;7.28;;;3.13;;
75386;SDS011;63966;47.914;22.266;2023-06-05T10:09:56;6.13;;;2.97;;
75386;SDS011;63966;47.914;22.266;2023-06-05T10:13:01;7.82;;;3.53;;
75386;SDS011;63966;47.914;22.266;2023-06-05T10:16:07;8.02;;;3.00;;
75386;SDS011;63966;47.914;22.266;2023-06-05T10:19:26;7.45;;;3.00;;
75386;SDS011;63966;47.914;22.266;2023-06-05T10:22:32;5.78;;;3.15;;
75386;SDS011;63966;47.914;22.266;2023-06-05T10:25:37;8.30;;;3.17;;
75386;SDS011;63966;47.914;22.266;2023-06-05T10:28:49;6.95;;;3.10;;
75386;SDS011;63966;47.914;22.266;2023-06-05T10:32:05;6.15;;;3.35;;
75386;SDS011;63966;47.914;22.266;2023-06-05T10:39:03;6.40;;;3.63;;
75386;SDS011;63966;47.914;22.266;2023-06-05T10:42:06;8.17;;;3.07;;
75386;SDS011;63966;47.914;22.266;2023-06-05T10:45:10;11.65;;;3.20;;
75386;SDS011;63966;47.914;22.266;2023-06-05T10:48:14;7.95;;;3.60;;
75386;SDS011;63966;47.914;22.266;2023-06-05T10:58:05;15.47;;;3.43;;
75386;SDS011;63966;47.914;22.266;2023-06-05T11:01:19;11.25;;;3.25;;
75386;SDS011;63966;47.914;22.266;2023-06-05T11:04:23;7.78;;;3.45;;
75386;SDS011;63966;47.914;22.266;2023-06-05T11:07:27;20.35;;;3.60;;
75386;SDS011;63966;47.914;22.266;2023-06-05T11:10:32;6.68;;;3.03;;
75386;SDS011;63966;47.914;22.266;2023-06-05T11:13:51;8.80;;;2.87;;
75386;SDS011;63966;47.914;22.266;2023-06-05T11:16:58;5.72;;;2.95;;
75386;SDS011;63966;47.914;22.266;2023-06-05T11:30:47;6.53;;;2.90;;
75386;SDS011;63966;47.914;22.266;2023-06-05T11:33:51;5.80;;;3.15;;
75386;SDS011;63966;47.914;22.266;2023-06-05T11:40:23;5.68;;;2.63;;
75386;SDS011;63966;47.914;22.266;2023-06-05T11:43:28;7.53;;;3.45;;
75386;SDS011;63966;47.914;22.266;2023-06-05T11:46:41;7.00;;;3.13;;
75386;SDS011;63966;47.914;22.266;2023-06-05T11:49:46;7.07;;;3.28;;
75386;SDS011;63966;47.914;22.266;2023-06-05T11:52:49;7.10;;;3.35;;
75386;SDS011;63966;47.914;22.266;2023-06-05T11:55:53;5.85;;;3.22;;
75386;SDS011;63966;47.914;22.266;2023-06-05T11:59:08;6.50;;;3.35;;
75386;SDS011;63966;47.914;22.266;2023-06-05T12:02:12;5.73;;;2.97;;
75386;SDS011;63966;47.914;22.266;2023-06-05T12:05:24;6.65;;;3.60;;
75386;SDS011;63966;47.914;22.266;2023-06-05T12:08:28;8.13;;;3.17;;
75386;SDS011;63966;47.914;22.266;2023-06-05T12:11:37;15.18;;;3.20;;
75386;SDS011;63966;47.914;22.266;2023-06-05T12:14:41;7.55;;;3.03;;
75386;SDS011;63966;47.914;22.266;2023-06-05T12:20:55;17.80;;;3.90;;
75386;SDS011;63966;47.914;22.266;2023-06-05T12:24:05;11.32;;;3.25;;
75386;SDS011;63966;47.914;22.266;2023-06-05T12:27:10;6.47;;;3.20;;
75386;SDS011;63966;47.914;22.266;2023-06-05T12:30:14;12.32;;;3.30;;
75386;SDS011;63966;47.914;22.266;2023-06-05T12:33:21;7.73;;;3.07;;
75386;SDS011;63966;47.914;22.266;2023-06-05T12:36:26;6.18;;;3.40;;
75386;SDS011;63966;47.914;22.266;2023-06-05T12:39:31;6.40;;;3.40;;
75386;SDS011;63966;47.914;22.266;2023-06-05T12:42:37;6.40;;;3.40;;
75386;SDS011;63966;47.914;22.266;2023-06-05T12:45:43;7.07;;;3.30;;
75386;SDS011;63966;47.914;22.266;2023-06-05T12:48:47;7.40;;;3.13;;
75386;SDS011;63966;47.914;22.266;2023-06-05T12:51:50;5.93;;;3.20;;
75386;SDS011;63966;47.914;22.266;2023-06-05T12:54:54;7.18;;;3.40;;
75386;SDS011;63966;47.914;22.266;2023-06-05T12:57:59;11.40;;;3.55;;
75386;SDS011;63966;47.914;22.266;2023-06-05T13:01:02;7.30;;;3.50;;
75386;SDS011;63966;47.914;22.266;2023-06-05T13:04:10;8.47;;;3.30;;
75386;SDS011;63966;47.914;22.266;2023-06-05T13:07:14;5.60;;;2.70;;
75386;SDS011;63966;47.914;22.266;2023-06-05T13:10:19;6.55;;;3.22;;
75386;SDS011;63966;47.914;22.266;2023-06-05T13:13:22;6.97;;;3.03;;
75386;SDS011;63966;47.914;22.266;2023-06-05T13:16:26;9.40;;;3.90;;
75386;SDS011;63966;47.914;22.266;2023-06-05T13:19:30;10.13;;;3.37;;
75386;SDS011;63966;47.914;22.266;2023-06-05T13:22:33;7.78;;;3.45;;
75386;SDS011;63966;47.914;22.266;2023-06-05T13:25:37;7.18;;;3.28;;
75386;SDS011;63966;47.914;22.266;2023-06-05T13:28:42;8.20;;;3.50;;
75386;SDS011;63966;47.914;22.266;2023-06-05T13:31:48;7.13;;;2.97;;
75386;SDS011;63966;47.914;22.266;2023-06-05T13:34:53;14.73;;;4.03;;
75386;SDS011;63966;47.914;22.266;2023-06-05T13:37:57;17.70;;;3.45;;
75386;SDS011;63966;47.914;22.266;2023-06-05T13:41:00;13.13;;;3.70;;
75386;SDS011;63966;47.914;22.266;2023-06-05T13:44:04;7.57;;;3.30;;
75386;SDS011;63966;47.914;22.266;2023-06-05T13:47:07;7.25;;;3.55;;
75386;SDS011;63966;47.914;22.266;2023-06-05T13:50:12;7.33;;;2.87;;
75386;SDS011;63966;47.914;22.266;2023-06-05T13:53:15;6.97;;;3.38;;
75386;SDS011;63966;47.914;22.266;2023-06-05T13:56:19;8.23;;;3.42;;
75386;SDS011;63966;47.914;22.266;2023-06-05T13:59:23;6.28;;;3.30;;
75386;SDS011;63966;47.914;22.266;2023-06-05T14:02:26;5.28;;;3.30;;
75386;SDS011;63966;47.914;22.266;2023-06-05T14:05:30;6.83;;;3.10;;
75386;SDS011;63966;47.914;22.266;2023-06-05T14:08:34;6.72;;;3.35;;
75386;SDS011;63966;47.914;22.266;2023-06-05T14:11:37;6.13;;;3.30;;
75386;SDS011;63966;47.914;22.266;2023-06-05T14:14:46;6.65;;;3.13;;
75386;SDS011;63966;47.914;22.266;2023-06-05T14:17:50;6.63;;;3.58;;
75386;SDS011;63966;47.914;22.266;2023-06-05T14:20:54;5.87;;;3.20;;
75386;SDS011;63966;47.914;22.266;2023-06-05T14:23:57;8.07;;;3.60;;
75386;SDS011;63966;47.914;22.266;2023-06-05T14:27:00;6.82;;;3.70;;
75386;SDS011;63966;47.914;22.266;2023-06-05T14:30:04;8.57;;;3.13;;
75386;SDS011;63966;47.914;22.266;2023-06-05T14:33:09;7.15;;;3.55;;
75386;SDS011;63966;47.914;22.266;2023-06-05T14:36:13;6.13;;;3.33;;
75386;SDS011;63966;47.914;22.266;2023-06-05T14:39:17;8.43;;;3.20;;
75386;SDS011;63966;47.914;22.266;2023-06-05T14:42:23;6.80;;;3.53;;
75386;SDS011;63966;47.914;22.266;2023-06-05T14:45:26;8.38;;;3.30;;
75386;SDS011;63966;47.914;22.266;2023-06-05T14:48:30;6.15;;;3.60;;
75386;SDS011;63966;47.914;22.266;2023-06-05T14:51:34;7.00;;;3.90;;
75386;SDS011;63966;47.914;22.266;2023-06-05T14:54:37;6.97;;;3.50;;
75386;SDS011;63966;47.914;22.266;2023-06-05T14:57:48;6.05;;;3.65;;
75386;SDS011;63966;47.914;22.266;2023-06-05T15:00:51;6.28;;;3.40;;
75386;SDS011;63966;47.914;22.266;2023-06-05T15:04:00;7.80;;;3.30;;
75386;SDS011;63966;47.914;22.266;2023-06-05T15:07:03;7.77;;;3.10;;
75386;SDS011;63966;47.914;22.266;2023-06-05T15:10:07;6.50;;;3.50;;
75386;SDS011;63966;47.914;22.266;2023-06-05T15:13:15;7.43;;;3.70;;
75386;SDS011;63966;47.914;22.266;2023-06-05T15:16:19;6.22;;;3.40;;
75386;SDS011;63966;47.914;22.266;2023-06-05T15:19:37;6.18;;;3.30;;
75386;SDS011;63966;47.914;22.266;2023-06-05T15:22:42;6.57;;;3.30;;
75386;SDS011;63966;47.914;22.266;2023-06-05T15:25:46;7.50;;;3.17;;
75386;SDS011;63966;47.914;22.266;2023-06-05T15:28:49;6.47;;;3.50;;
75386;SDS011;63966;47.914;22.266;2023-06-05T15:31:53;7.47;;;3.30;;
75386;SDS011;63966;47.914;22.266;2023-06-05T15:35:12;8.88;;;3.70;;
75386;SDS011;63966;47.914;22.266;2023-06-05T15:38:15;8.73;;;3.77;;
75386;SDS011;63966;47.914;22.266;2023-06-05T15:41:19;7.38;;;3.75;;
75386;SDS011;63966;47.914;22.266;2023-06-05T15:44:23;6.47;;;3.50;;
75386;SDS011;63966;47.914;22.266;2023-06-05T15:47:27;6.25;;;3.40;;
75386;SDS011;63966;47.914;22.266;2023-06-05T15:50:32;7.97;;;3.53;;
75386;SDS011;63966;47.914;22.266;2023-06-05T15:53:35;7.97;;;3.30;;
75386;SDS011;63966;47.914;22.266;2023-06-05T15:57:02;6.88;;;3.60;;
75386;SDS011;63966;47.914;22.266;2023-06-05T16:00:08;6.80;;;3.40;;
75386;SDS011;63966;47.914;22.266;2023-06-05T16:03:12;6.78;;;3.33;;
75386;SDS011;63966;47.914;22.266;2023-06-05T16:06:16;8.18;;;3.75;;
75386;SDS011;63966;47.914;22.266;2023-06-05T16:09:20;6.17;;;3.60;;
75386;SDS011;63966;47.914;22.266;2023-06-05T16:12:23;9.45;;;3.65;;
75386;SDS011;63966;47.914;22.266;2023-06-05T16:15:27;8.43;;;2.97;;
75386;SDS011;63966;47.914;22.266;2023-06-05T16:18:30;6.68;;;3.55;;
75386;SDS011;63966;47.914;22.266;2023-06-05T16:21:34;6.45;;;3.53;;
75386;SDS011;63966;47.914;22.266;2023-06-05T16:24:39;6.33;;;3.33;;
75386;SDS011;63966;47.914;22.266;2023-06-05T16:27:43;7.40;;;3.30;;
75386;SDS011;63966;47.914;22.266;2023-06-05T16:30:46;7.47;;;3.40;;
75386;SDS011;63966;47.914;22.266;2023-06-05T16:33:50;7.38;;;3.80;;
75386;SDS011;63966;47.914;22.266;2023-06-05T16:36:53;7.13;;;3.70;;
75386;SDS011;63966;47.914;22.266;2023-06-05T16:39:57;9.73;;;3.73;;
75386;SDS011;63966;47.914;22.266;2023-06-05T16:43:00;8.68;;;4.20;;
75386;SDS011;63966;47.914;22.266;2023-06-05T16:46:04;7.47;;;3.70;;
75386;SDS011;63966;47.914;22.266;2023-06-05T16:49:08;7.95;;;3.63;;
75386;SDS011;63966;47.914;22.266;2023-06-05T16:52:11;8.05;;;4.00;;
75386;SDS011;63966;47.914;22.266;2023-06-05T16:55:14;7.57;;;3.70;;
75386;SDS011;63966;47.914;22.266;2023-06-05T16:58:18;6.05;;;3.50;;
75386;SDS011;63966;47.914;22.266;2023-06-05T17:01:22;9.90;;;3.55;;
75386;SDS011;63966;47.914;22.266;2023-06-05T17:04:26;7.95;;;3.30;;
75386;SDS011;63966;47.914;22.266;2023-06-05T17:07:29;5.50;;;2.90;;
75386;SDS011;63966;47.914;22.266;2023-06-05T17:10:33;7.40;;;3.40;;
75386;SDS011;63966;47.914;22.266;2023-06-05T17:13:37;6.75;;;3.28;;
75386;SDS011;63966;47.914;22.266;2023-06-05T17:16:41;7.47;;;3.70;;
75386;SDS011;63966;47.914;22.266;2023-06-05T17:19:44;6.63;;;3.05;;
75386;SDS011;63966;47.914;22.266;2023-06-05T17:22:48;7.68;;;3.95;;
75386;SDS011;63966;47.914;22.266;2023-06-05T17:25:51;6.20;;;3.13;;
75386;SDS011;63966;47.914;22.266;2023-06-05T17:28:55;6.95;;;3.50;;
75386;SDS011;63966;47.914;22.266;2023-06-05T17:32:02;7.95;;;3.70;;
75386;SDS011;63966;47.914;22.266;2023-06-05T17:35:09;7.95;;;3.92;;
75386;SDS011;63966;47.914;22.266;2023-06-05T17:38:13;8.38;;;3.58;;
75386;SDS011;63966;47.914;22.266;2023-06-05T17:41:16;8.30;;;3.53;;
75386;SDS011;63966;47.914;22.266;2023-06-05T17:44:20;14.40;;;3.90;;
75386;SDS011;63966;47.914;22.266;2023-06-05T17:47:24;26.80;;;4.75;;
75386;SDS011;63966;47.914;22.266;2023-06-05T17:50:27;34.40;;;4.43;;
75386;SDS011;63966;47.914;22.266;2023-06-05T17:53:31;24.35;;;5.20;;
75386;SDS011;63966;47.914;22.266;2023-06-05T17:56:34;25.50;;;4.13;;
75386;SDS011;63966;47.914;22.266;2023-06-05T17:59:39;20.50;;;4.05;;
75386;SDS011;63966;47.914;22.266;2023-06-05T18:02:42;30.33;;;5.07;;
75386;SDS011;63966;47.914;22.266;2023-06-05T18:05:51;26.45;;;4.32;;
75386;SDS011;63966;47.914;22.266;2023-06-05T18:08:56;11.40;;;3.92;;
75386;SDS011;63966;47.914;22.266;2023-06-05T18:12:02;10.23;;;3.77;;
75386;SDS011;63966;47.914;22.266;2023-06-05T18:15:06;13.23;;;4.05;;
75386;SDS011;63966;47.914;22.266;2023-06-05T18:18:09;10.90;;;3.83;;
75386;SDS011;63966;47.914;22.266;2023-06-05T18:21:15;13.48;;;4.18;;
75386;SDS011;63966;47.914;22.266;2023-06-05T18:24:18;28.88;;;6.68;;
75386;SDS011;63966;47.914;22.266;2023-06-05T18:27:21;11.50;;;5.00;;
75386;SDS011;63966;47.914;22.266;2023-06-05T18:30:25;29.98;;;5.78;;
75386;SDS011;63966;47.914;22.266;2023-06-05T18:33:28;29.17;;;4.82;;
75386;SDS011;63966;47.914;22.266;2023-06-05T18:36:33;29.92;;;5.88;;
75386;SDS011;63966;47.914;22.266;2023-06-05T18:39:37;10.13;;;3.85;;
75386;SDS011;63966;47.914;22.266;2023-06-05T18:42:40;11.90;;;3.70;;